Time;durP1;ratioP1;P1;durP2;ratioP2;P2;SDS_P1;SDS_P2;PMS_P1;PMS_P2;Temp;Humidity;BMP_temperature;BMP_pressure;BME280_temperature;BME280_humidity;BME280_pressure;Samples;Min_cycle;Max_cycle;Signal;HPM_P1;HPM_P2
2023/06/29 00:22:30;;;;;;;15.17;13.53;;;14.80;99.90;;;;;;5922633;23;20173;-88
2023/06/29 00:48:05;;;;;;;13.77;12.40;;;14.50;99.90;;;;;;5852330;24;20628;-87
2023/06/29 01:13:24;;;;;;;16.20;13.97;;;14.20;99.90;;;;;;5879118;24;20227;-87
2023/06/29 01:53:58;;;;;;;12.77;10.70;;;14.10;99.90;;;;;;6083053;23;20165;-84
2023/06/29 02:19:11;;;;;;;14.10;11.73;;;13.90;99.90;;;;;;5724584;24;20360;-86
2023/06/29 03:34:52;;;;;;;11.77;9.77;;;15.60;99.90;;;;;;5968579;23;20211;-89
2023/06/29 03:55:48;;;;;;;11.57;9.30;;;15.50;99.90;;;;;;5709823;24;20717;-85
2023/06/29 04:20:59;;;;;;;8.33;7.53;;;16.00;99.90;;;;;;5688852;24;20191;-87
2023/06/29 04:56:35;;;;;;;12.07;10.17;;;16.00;99.90;;;;;;5582065;24;20342;-83
2023/06/29 05:57:36;;;;;;;14.37;11.30;;;16.50;99.90;;;;;;5642687;24;20252;-83
2023/06/29 06:01:56;;;;;;;15.57;13.10;;;16.60;99.90;;;;;;5547940;24;20629;-85
2023/06/29 06:42:52;;;;;;;17.63;12.80;;;18.30;99.90;;;;;;5450509;25;20600;-83
2023/06/29 07:03:31;;;;;;;12.90;10.60;;;18.90;98.00;;;;;;5493166;25;20761;-83
2023/06/29 08:19:43;;;;;;;6.35;5.75;;;21.70;90.70;;;;;;5751391;23;20496;-82
2023/06/29 08:49:57;;;;;;;5.82;5.32;;;24.50;82.80;;;;;;5734193;24;20252;-83
2023/06/29 09:20:37;;;;;;;8.60;5.63;;;24.40;77.30;;;;;;5686698;24;20280;-83
2023/06/29 09:24:58;;;;;;;6.20;4.95;;;24.50;79.30;;;;;;5613439;24;20715;-83
2023/06/29 10:05:35;;;;;;;4.68;4.28;;;24.70;66.70;;;;;;5506769;24;20812;-82
2023/06/29 10:31:16;;;;;;;4.38;4.00;;;25.20;61.00;;;;;;5510535;24;20645;-84
2023/06/29 10:55:20;;;;;;;4.85;4.07;;;25.20;57.90;;;;;;5948542;23;21007;-82
2023/06/29 11:20:39;;;;;;;4.68;4.32;;;25.60;58.60;;;;;;5653099;24;20603;-81
2023/06/29 12:11:34;;;;;;;5.15;4.10;;;26.20;52.60;;;;;;5981492;23;20185;-85
2023/06/29 12:36:56;;;;;;;4.18;3.83;;;26.10;52.10;;;;;;5749783;24;20545;-86
2023/06/29 13:02:04;;;;;;;4.78;3.80;;;27.90;50.90;;;;;;5657856;24;20164;-85
2023/06/29 13:22:12;;;;;;;4.47;3.85;;;28.80;52.50;;;;;;5541626;24;20697;-83
2023/06/29 13:42:47;;;;;;;4.80;4.10;;;29.40;50.40;;;;;;5725445;24;20205;-84
2023/06/29 14:08:00;;;;;;;4.78;4.28;;;29.00;48.20;;;;;;5753232;24;20548;-83
2023/06/29 14:28:28;;;;;;;7.07;5.75;;;22.50;87.70;;;;;;5810283;24;20198;-82
2023/06/29 14:48:47;;;;;;;6.85;6.30;;;20.80;99.90;;;;;;5612782;24;20209;-84
2023/06/29 15:28:59;;;;;;;9.10;5.10;;;23.90;81.20;;;;;;5522175;25;20857;-86
2023/06/29 15:54:38;;;;;;;4.53;4.13;;;25.20;75.70;;;;;;5587224;25;20521;-85
2023/06/29 16:24:27;;;;;;;4.47;4.07;;;25.90;65.10;;;;;;5619824;24;20724;-86
2023/06/29 17:25:21;;;;;;;5.55;4.38;;;24.10;73.70;;;;;;5781010;23;20526;-88
2023/06/29 17:45:51;;;;;;;4.60;4.20;;;23.70;77.50;;;;;;5792336;24;20495;-86
2023/06/29 18:21:47;;;;;;;5.03;4.50;;;22.60;82.90;;;;;;5829971;24;20178;-88
2023/06/29 18:52:09;;;;;;;4.97;4.43;;;22.10;86.80;;;;;;5896695;24;20213;-88
2023/06/29 19:17:33;;;;;;;6.70;6.10;;;17.40;99.90;;;;;;5756670;24;20528;-85
2023/06/29 20:18:12;;;;;;;10.70;8.30;;;17.60;99.90;;;;;;5425771;25;20476;-86
2023/06/29 20:48:50;;;;;;;11.67;8.73;;;17.70;99.90;;;;;;5910519;23;20180;-88
2023/06/29 21:08:56;;;;;;;10.43;9.40;;;17.70;99.90;;;;;;5718177;24;20198;-86
2023/06/29 21:39:31;;;;;;;12.40;11.00;;;17.80;99.90;;;;;;5973009;23;20177;-84
2023/06/29 22:14:53;;;;;;;8.50;7.60;;;17.50;99.90;;;;;;5879826;24;20526;-86
2023/06/29 22:35:20;;;;;;;13.30;11.70;;;17.40;99.90;;;;;;5776212;24;20185;-87
2023/06/29 23:20:47;;;;;;;14.40;12.97;;;17.60;99.90;;;;;;5683985;24;20401;-87
2023/06/29 23:41:09;;;;;;;11.70;10.60;;;17.50;99.90;;;;;;5816156;24;20622;-86
